createdAt,value
2023-04-25T00:03:23.598Z,11.72
2023-04-25T00:08:26.789Z,11.63
2023-04-25T00:13:29.716Z,11.54
2023-04-25T00:18:34.327Z,11.43
2023-04-25T00:23:37.664Z,11.33
2023-04-25T00:28:41.180Z,11.21
2023-04-25T00:33:44.836Z,11.15
2023-04-25T00:38:48.812Z,11.14
2023-04-25T00:43:51.937Z,11.13
2023-04-25T00:48:54.954Z,11.10
2023-04-25T00:53:57.939Z,11.02
2023-04-25T00:59:01.000Z,10.92
2023-04-25T01:04:04.178Z,10.76
2023-04-25T01:09:07.289Z,10.69
2023-04-25T01:14:10.184Z,10.62
2023-04-25T01:19:13.364Z,10.58
2023-04-25T01:24:16.304Z,10.53
2023-04-25T01:29:20.254Z,10.46
2023-04-25T01:34:23.098Z,10.39
2023-04-25T01:39:26.091Z,10.32
2023-04-25T01:44:29.080Z,10.24
2023-04-25T01:49:32.098Z,10.16
2023-04-25T01:54:34.952Z,10.14
2023-04-25T01:59:38.165Z,10.12
2023-04-25T02:04:41.364Z,10.14
2023-04-25T02:09:44.431Z,10.21
2023-04-25T02:14:47.256Z,10.33
2023-04-25T02:19:51.238Z,10.43
2023-04-25T02:24:55.027Z,10.54
2023-04-25T02:29:57.968Z,10.67
2023-04-25T02:35:04.879Z,10.75
2023-04-25T02:40:09.151Z,10.87
2023-04-25T02:45:12.451Z,10.91
2023-04-25T02:50:15.320Z,10.94
2023-04-25T02:55:19.805Z,10.94
2023-04-25T03:00:23.722Z,10.92
2023-04-25T03:05:26.643Z,10.90
2023-04-25T03:10:29.613Z,10.89
2023-04-25T03:15:32.460Z,10.90
2023-04-25T03:20:35.439Z,10.88
2023-04-25T03:25:38.272Z,10.88
2023-04-25T03:30:41.209Z,10.88
2023-04-25T03:35:44.246Z,10.90
2023-04-25T03:40:47.080Z,10.92
2023-04-25T03:45:50.130Z,10.98
2023-04-25T03:50:54.371Z,11.04
2023-04-25T03:55:57.262Z,11.12
2023-04-25T04:01:00.474Z,11.20
2023-04-25T04:06:07.207Z,11.22
2023-04-25T04:11:10.565Z,11.26
2023-04-25T04:16:13.574Z,11.29
2023-04-25T04:21:16.571Z,11.33
2023-04-25T04:26:19.367Z,11.36
2023-04-25T04:31:23.013Z,11.38
2023-04-25T04:36:27.597Z,11.40
2023-04-25T04:41:31.309Z,11.39
2023-04-25T04:46:39.036Z,11.45
2023-04-25T04:51:42.340Z,11.48
2023-04-25T04:56:45.324Z,11.52
2023-04-25T05:01:48.346Z,11.56
2023-04-25T05:06:51.254Z,11.63
2023-04-25T05:11:54.289Z,11.63
2023-04-25T05:16:57.194Z,11.62
2023-04-25T05:22:00.265Z,11.57
2023-04-25T05:27:03.496Z,11.57
2023-04-25T05:32:06.541Z,11.52
2023-04-25T05:37:09.427Z,11.48
2023-04-25T05:42:12.257Z,11.47
2023-04-25T05:47:15.249Z,11.55
2023-04-25T05:52:18.091Z,11.67
2023-04-25T05:57:28.158Z,11.63
2023-04-25T06:02:31.449Z,11.53
2023-04-25T06:07:34.495Z,11.46
2023-04-25T06:12:37.446Z,11.37
2023-04-25T06:17:40.861Z,11.25
2023-04-25T06:22:43.841Z,11.11
2023-04-25T06:27:46.758Z,10.83
2023-04-25T06:32:49.798Z,10.58
2023-04-25T06:37:52.716Z,10.36
2023-04-25T06:42:55.612Z,10.24
2023-04-25T06:47:58.526Z,10.23
2023-04-25T06:53:02.618Z,10.28
2023-04-25T06:58:05.434Z,10.31
2023-04-25T07:03:08.457Z,10.41
2023-04-25T07:08:11.864Z,10.47
2023-04-25T07:13:14.742Z,10.54
2023-04-25T07:18:17.856Z,10.61
2023-04-25T07:23:21.296Z,10.73
2023-04-25T07:28:24.160Z,10.63
2023-04-25T07:33:27.002Z,10.60
2023-04-25T07:38:29.844Z,10.62
2023-04-25T07:43:32.870Z,10.71
2023-04-25T07:48:35.812Z,10.71
2023-04-25T07:53:39.323Z,10.71
2023-04-25T07:58:42.223Z,10.82
2023-04-25T08:03:45.314Z,10.86
2023-04-25T08:08:48.709Z,10.92
2023-04-25T08:13:51.779Z,10.94
2023-04-25T08:18:54.846Z,10.91
2023-04-25T08:23:59.767Z,10.82
2023-04-25T08:29:02.824Z,10.68
2023-04-25T08:34:05.709Z,10.67
2023-04-25T08:39:08.707Z,10.60
2023-04-25T08:44:12.354Z,10.52
2023-04-25T08:49:16.266Z,10.44
2023-04-25T08:54:34.685Z,10.22
2023-04-25T08:59:40.609Z,10.09
2023-04-25T09:04:44.805Z,9.96
2023-04-25T09:09:47.881Z,9.93
2023-04-25T09:15:20.286Z,9.87
2023-04-25T09:20:23.885Z,9.85
2023-04-25T09:25:26.997Z,9.81
2023-04-25T09:30:31.846Z,9.84
2023-04-25T09:35:39.658Z,9.84
2023-04-25T09:40:46.118Z,9.82
2023-04-25T09:45:50.999Z,9.73
2023-04-25T09:51:16.230Z,9.71
2023-04-25T09:56:19.404Z,9.72
2023-04-25T10:01:22.333Z,9.73
2023-04-25T10:06:25.527Z,9.78
2023-04-25T10:11:28.429Z,9.74
2023-04-25T10:16:31.828Z,9.70
2023-04-25T10:21:34.974Z,9.74
2023-04-25T10:26:37.942Z,9.67
2023-04-25T10:31:48.331Z,9.67
2023-04-25T10:36:53.342Z,9.67
2023-04-25T10:41:59.679Z,9.55
2023-04-25T10:47:04.353Z,9.54
2023-04-25T10:52:26.772Z,9.63
2023-04-25T10:57:43.100Z,9.72
2023-04-25T11:03:00.022Z,9.71
2023-04-25T11:08:08.332Z,9.76
2023-04-25T11:13:12.137Z,9.73
2023-04-25T11:18:19.419Z,9.68
2023-04-25T11:23:22.315Z,9.60
2023-04-25T11:28:26.019Z,9.58
2023-04-25T11:33:30.208Z,9.59
2023-04-25T11:38:33.102Z,9.69
2023-04-25T11:43:36.058Z,9.77
2023-04-25T11:48:41.072Z,9.84
2023-04-25T11:53:45.922Z,9.89
2023-04-25T11:59:03.067Z,9.90
2023-04-25T12:04:16.565Z,9.94
2023-04-25T12:09:25.121Z,9.92
2023-04-25T12:14:30.366Z,9.97
2023-04-25T12:19:35.302Z,10.03
2023-04-25T12:24:39.414Z,10.07
2023-04-25T12:30:13.193Z,10.05
2023-04-25T12:35:16.167Z,10.11
2023-04-25T12:40:19.032Z,10.22
2023-04-25T12:45:21.859Z,10.22
2023-04-25T12:50:24.771Z,10.26
2023-04-25T12:55:27.740Z,10.38
2023-04-25T13:00:31.820Z,10.42
2023-04-25T13:05:34.745Z,10.44
2023-04-25T13:11:08.557Z,10.47
2023-04-25T13:16:11.611Z,10.55
2023-04-25T13:21:14.605Z,10.61
2023-04-25T13:26:17.489Z,10.59
2023-04-25T13:31:20.359Z,10.43
2023-04-25T13:36:23.593Z,10.35
2023-04-25T13:41:27.049Z,10.27
2023-04-25T13:46:45.599Z,10.26
2023-04-25T13:51:50.540Z,10.29
2023-04-25T13:56:56.413Z,10.26
2023-04-25T14:01:59.462Z,10.27
2023-04-25T14:07:04.035Z,10.29
2023-04-25T14:12:07.685Z,10.33
2023-04-25T14:17:11.022Z,10.33
2023-04-25T14:22:14.005Z,10.21
2023-04-25T14:27:17.237Z,10.19
2023-04-25T14:32:21.327Z,10.19
2023-04-25T14:37:25.950Z,10.16
2023-04-25T14:42:29.846Z,10.13
2023-04-25T14:47:32.862Z,10.12
2023-04-25T14:52:36.304Z,10.12
2023-04-25T14:57:40.747Z,10.08
2023-04-25T15:02:44.176Z,9.92
2023-04-25T15:07:50.212Z,9.82
2023-04-25T15:12:55.981Z,9.78
2023-04-25T15:18:01.811Z,9.72
2023-04-25T15:23:08.647Z,9.71
2023-04-25T15:28:19.670Z,9.60
2023-04-25T15:33:32.364Z,9.53
2023-04-25T15:38:43.095Z,9.50
2023-04-25T15:43:50.375Z,9.47
2023-04-25T15:48:54.677Z,9.47
2023-04-25T15:53:57.805Z,9.44
2023-04-25T15:59:00.768Z,9.45
2023-04-25T16:04:04.670Z,9.45
2023-04-25T16:09:08.658Z,9.40
2023-04-25T16:14:11.594Z,9.32
2023-04-25T16:19:14.461Z,9.22
2023-04-25T16:24:50.472Z,9.15
2023-04-25T16:29:53.292Z,9.05
2023-04-25T16:34:58.610Z,8.93
2023-04-25T16:40:01.784Z,8.86
2023-04-25T16:45:06.165Z,8.76
2023-04-25T16:50:09.425Z,8.65
2023-04-25T16:55:12.296Z,8.51
2023-04-25T17:00:16.398Z,8.33
2023-04-25T17:05:19.496Z,8.11
2023-04-25T17:10:23.161Z,7.89
2023-04-25T17:15:26.802Z,7.83
2023-04-25T17:20:29.655Z,7.75
2023-04-25T17:25:33.856Z,7.70
2023-04-25T17:30:37.069Z,7.70
2023-04-25T17:35:40.747Z,7.70
2023-04-25T17:40:43.623Z,7.67
2023-04-25T17:45:47.020Z,7.67
2023-04-25T17:50:50.041Z,7.64
2023-04-25T17:55:52.969Z,7.59
2023-04-25T18:00:56.640Z,7.55
2023-04-25T18:05:59.689Z,7.53
2023-04-25T18:11:02.577Z,7.51
2023-04-25T18:16:06.115Z,7.47
2023-04-25T18:21:09.905Z,7.45
2023-04-25T18:26:12.893Z,7.42
2023-04-25T18:31:17.345Z,7.38
2023-04-25T18:36:20.205Z,7.38
2023-04-25T18:41:50.914Z,7.37
2023-04-25T18:46:50.146Z,7.36
2023-04-25T18:51:56.084Z,7.32
2023-04-25T18:57:01.247Z,7.29
2023-04-25T19:02:05.671Z,7.26
2023-04-25T19:07:08.930Z,7.25
2023-04-25T19:12:11.941Z,7.25
2023-04-25T19:17:14.890Z,7.24
2023-04-25T19:22:17.854Z,7.22
2023-04-25T19:27:20.661Z,7.20
2023-04-25T19:32:26.508Z,7.19
2023-04-25T19:37:30.053Z,7.21
2023-04-25T19:42:33.266Z,7.25
2023-04-25T19:47:39.358Z,7.27
2023-04-25T19:52:42.274Z,7.26
2023-04-25T19:57:45.181Z,7.23
2023-04-25T20:02:48.441Z,7.23
2023-04-25T20:07:51.506Z,7.22
2023-04-25T20:12:54.635Z,7.22
2023-04-25T20:17:57.829Z,7.21
2023-04-25T20:23:00.843Z,7.21
2023-04-25T20:28:03.737Z,7.17
2023-04-25T20:33:07.595Z,7.17
2023-04-25T20:38:10.681Z,7.21
2023-04-25T20:43:14.303Z,7.25
2023-04-25T20:48:17.343Z,7.28
2023-04-25T20:53:20.431Z,7.31
2023-04-25T20:58:23.259Z,7.34
2023-04-25T21:03:26.315Z,7.35
2023-04-25T21:08:29.372Z,7.34
2023-04-25T21:13:32.271Z,7.31
2023-04-25T21:18:35.166Z,7.25
2023-04-25T21:23:37.989Z,7.19
2023-04-25T21:28:40.856Z,7.16
2023-04-25T21:33:43.675Z,7.17
2023-04-25T21:38:46.481Z,7.15
2023-04-25T21:43:49.307Z,7.13
2023-04-25T21:48:52.461Z,7.11
2023-04-25T21:53:55.685Z,7.11
2023-04-25T21:58:58.554Z,7.13
2023-04-25T22:04:01.704Z,7.16
2023-04-25T22:09:05.362Z,7.20
2023-04-25T22:14:10.077Z,7.22
2023-04-25T22:19:12.987Z,7.26
2023-04-25T22:24:16.450Z,7.27
2023-04-25T22:29:19.284Z,7.30
2023-04-25T22:34:22.152Z,7.27
2023-04-25T22:39:25.389Z,7.13
2023-04-25T22:44:28.318Z,6.98
2023-04-25T22:49:31.132Z,6.85
2023-04-25T22:54:35.096Z,6.74
2023-04-25T22:59:38.272Z,6.67
2023-04-25T23:04:41.131Z,6.58
2023-04-25T23:09:45.135Z,6.54
2023-04-25T23:14:52.024Z,6.50
2023-04-25T23:19:55.548Z,6.45
2023-04-25T23:24:58.330Z,6.41
2023-04-25T23:30:01.142Z,6.38
2023-04-25T23:35:05.317Z,6.37
2023-04-25T23:40:10.199Z,6.37
2023-04-25T23:45:14.479Z,6.40
2023-04-25T23:50:17.547Z,6.45
2023-04-25T23:55:20.420Z,6.44
